Time;durP1;ratioP1;P1;durP2;ratioP2;P2;SDS_P1;SDS_P2;PMS_P1;PMS_P2;Temp;Humidity;BMP_temperature;BMP_pressure;BME280_temperature;BME280_humidity;BME280_pressure;Samples;Min_cycle;Max_cycle;Signal;HPM_P1;HPM_P2
2021/07/07 00:01:08;;;;;;;9.93;6.87;;;;;;;27.09;50.34;100627.02;127868;1087;64304;-84
2021/07/07 00:03:54;;;;;;;10.05;7.05;;;;;;;27.09;50.30;100627.86;127942;1087;64282;-84
2021/07/07 00:06:25;;;;;;;11.78;6.98;;;;;;;27.09;50.23;100622.44;127922;1087;63910;-84
2021/07/07 00:08:52;;;;;;;10.70;7.23;;;;;;;27.09;50.41;100619.73;127950;1087;64138;-84
2021/07/07 00:11:27;;;;;;;9.77;6.93;;;;;;;27.09;50.41;100633.28;127962;1087;64130;-84
2021/07/07 00:14:02;;;;;;;9.17;6.63;;;;;;;27.10;50.45;100632.28;127959;1087;64157;-84
2021/07/07 00:16:57;;;;;;;11.30;7.17;;;;;;;27.09;50.49;100635.98;127923;1087;64243;-84
2021/07/07 00:19:38;;;;;;;10.50;7.00;;;;;;;27.10;50.58;100634.16;127899;1087;64134;-84
2021/07/07 00:22:24;;;;;;;10.77;7.33;;;;;;;27.10;50.56;100639.57;128108;1087;64476;-84
2021/07/07 00:25:11;;;;;;;12.70;6.87;;;;;;;27.10;50.60;100636.86;128386;1087;64159;-83
2021/07/07 00:27:39;;;;;;;9.83;6.80;;;;;;;27.09;50.46;100633.28;128380;1087;64134;-84
2021/07/07 00:30:27;;;;;;;10.83;7.93;;;;;;;27.09;50.59;100633.28;128371;1087;64172;-84
2021/07/07 00:33:14;;;;;;;11.43;7.13;;;;;;;27.08;50.43;100634.28;127925;1087;64141;-84
2021/07/07 00:36:02;;;;;;;10.27;7.10;;;;;;;27.09;50.56;100635.98;127921;1087;64076;-84
2021/07/07 00:38:38;;;;;;;;;;;;;;;27.07;50.49;100629.89;127930;1087;64291;-84
2021/07/07 00:41:05;;;;;;;10.57;7.60;;;;;;;27.06;50.57;100633.59;127909;1087;64246;-84
2021/07/07 00:43:40;;;;;;;11.57;7.20;;;;;;;27.08;50.72;100636.15;127904;1086;64137;-83
2021/07/07 00:46:46;;;;;;;9.63;7.00;;;;;;;27.06;50.87;100639.02;127897;1087;64143;-84
2021/07/07 00:49:50;;;;;;;10.00;6.90;;;;;;;27.07;50.61;100634.44;127892;1087;64136;-84
2021/07/07 00:52:43;;;;;;;10.07;7.10;;;;;;;27.07;50.77;100631.73;127895;1087;64323;-84
2021/07/07 00:55:24;;;;;;;12.13;6.60;;;;;;;27.07;50.66;100634.44;127884;1087;64221;-84
2021/07/07 00:58:02;;;;;;;10.30;7.40;;;;;;;27.07;51.02;100639.85;127917;1090;65318;-83
2021/07/07 01:00:37;;;;;;;10.27;7.13;;;;;;;27.08;50.81;100646.98;127909;1087;64070;-84
2021/07/07 01:03:03;;;;;;;8.77;7.03;;;;;;;27.07;50.88;100645.27;127913;1087;64138;-84
2021/07/07 01:05:48;;;;;;;9.13;7.03;;;;;;;27.07;50.54;100640.73;127884;1087;64106;-84
2021/07/07 01:08:32;;;;;;;11.27;7.20;;;;;;;27.08;51.03;100646.98;127924;1087;64167;-84
2021/07/07 01:11:12;;;;;;;9.93;7.00;;;;;;;27.07;50.86;100642.56;128207;1087;64144;-84
2021/07/07 01:14:10;;;;;;;9.67;7.30;;;;;;;27.07;50.90;100639.85;128387;1087;64087;-84
2021/07/07 01:16:49;;;;;;;9.63;7.50;;;;;;;27.06;50.87;100641.72;128374;1087;65123;-84
2021/07/07 01:19:16;;;;;;;10.40;6.83;;;;;;;27.06;50.75;100644.44;128388;1087;64149;-83
2021/07/07 01:22:14;;;;;;;9.90;7.17;;;;;;;27.06;51.02;100649.85;128378;1085;63904;-83
2021/07/07 01:25:21;;;;;;;10.57;7.43;;;;;;;27.07;51.02;100648.86;128367;1087;64509;-83
2021/07/07 01:28:21;;;;;;;9.73;7.20;;;;;;;27.05;50.96;100648.14;128342;1085;64201;-84
2021/07/07 01:31:17;;;;;;;11.23;7.60;;;;;;;27.06;50.92;100651.72;128379;1085;64135;-84
2021/07/07 01:34:13;;;;;;;10.33;7.13;;;;;;;27.06;50.84;100652.56;128015;1086;64208;-83
2021/07/07 01:36:52;;;;;;;10.43;7.53;;;;;;;27.06;50.86;100644.44;128369;1086;64073;-83
2021/07/07 01:39:38;;;;;;;11.93;7.67;;;;;;;27.07;51.01;100647.98;128364;1087;64300;-84
2021/07/07 01:42:16;;;;;;;9.53;6.97;;;;;;;27.07;50.93;100639.85;128400;1087;64243;-84
2021/07/07 01:45:03;;;;;;;10.67;7.90;;;;;;;27.06;51.07;100639.02;128358;1087;64111;-84
2021/07/07 01:47:36;;;;;;;9.67;7.33;;;;;;;27.06;50.97;100636.30;128377;1085;64140;-83
2021/07/07 01:50:07;;;;;;;9.87;7.30;;;;;;;27.06;50.94;100636.30;128395;1087;64357;-83
2021/07/07 01:52:39;;;;;;;11.87;7.67;;;;;;;27.06;50.79;100633.59;128392;1087;64227;-84
2021/07/07 01:55:17;;;;;;;12.10;8.20;;;;;;;27.06;51.11;100635.47;128420;1085;64314;-83
2021/07/07 01:57:48;;;;;;;9.05;7.05;;;;;;;27.06;50.91;100640.89;128384;1086;64137;-84
2021/07/07 02:00:40;;;;;;;10.83;8.00;;;;;;;27.06;50.93;100643.59;128380;1087;64141;-85
2021/07/07 02:03:29;;;;;;;9.50;7.83;;;;;;;27.06;51.06;100646.30;128360;1087;64167;-84
2021/07/07 02:06:07;;;;;;;9.85;7.90;;;;;;;27.05;51.13;100644.59;128337;1087;64208;-83
2021/07/07 02:08:33;;;;;;;14.17;8.30;;;;;;;27.04;50.99;100649.14;128360;1087;64243;-84
2021/07/07 02:11:28;;;;;;;9.83;7.57;;;;;;;27.05;51.07;100652.72;128359;1086;64091;-84
2021/07/07 02:14:13;;;;;;;10.60;7.63;;;;;;;27.05;51.09;100660.84;128413;1086;64234;-84
2021/07/07 02:17:00;;;;;;;11.93;7.83;;;;;;;27.04;50.89;100659.98;128365;1087;63957;-84
2021/07/07 02:19:35;;;;;;;10.63;8.00;;;;;;;27.05;51.13;100667.10;128369;1087;64282;-84
2021/07/07 02:22:48;;;;;;;9.30;7.93;;;;;;;27.04;51.07;100662.69;128371;1087;64102;-84
2021/07/07 02:25:38;;;;;;;11.40;7.40;;;;;;;27.04;51.04;100648.30;127907;1087;64219;-84
2021/07/07 02:28:08;;;;;;;10.30;7.80;;;;;;;27.04;51.39;100651.84;127875;1090;64140;-84
2021/07/07 02:30:44;;;;;;;11.00;7.73;;;;;;;27.03;51.16;100655.59;127915;1087;64144;-84
2021/07/07 02:33:31;;;;;;;10.13;8.03;;;;;;;27.04;51.10;100659.98;127887;1087;64099;-84
2021/07/07 02:36:06;;;;;;;10.83;8.07;;;;;;;27.04;51.00;100662.69;127918;1087;64277;-85
2021/07/07 02:38:52;;;;;;;11.33;8.00;;;;;;;27.04;51.20;100661.84;127917;1087;64140;-84
2021/07/07 02:41:19;;;;;;;10.93;8.17;;;;;;;27.04;51.10;100661.84;127910;1090;64302;-84
2021/07/07 02:43:58;;;;;;;10.17;8.13;;;;;;;27.04;50.98;100659.13;127913;1087;64288;-85
2021/07/07 02:46:33;;;;;;;12.13;7.90;;;;;;;27.03;51.00;100663.71;127927;1087;64178;-84
2021/07/07 02:49:25;;;;;;;12.17;7.87;;;;;;;27.04;50.96;100665.39;127910;1087;64137;-84
2021/07/07 02:52:20;;;;;;;9.77;7.67;;;;;;;27.04;51.00;100669.97;127899;1087;64584;-84
2021/07/07 02:54:49;;;;;;;10.40;7.87;;;;;;;27.03;50.80;100666.42;127862;1087;64252;-84
2021/07/07 02:57:18;;;;;;;;;;;;;;;27.02;51.10;100667.42;127986;1087;64171;-84
2021/07/07 02:59:59;;;;;;;;;;;;;;;;;;;;;
2021/07/07 03:02:36;;;;;;;10.00;8.07;;;;;;;27.02;50.85;100672.84;128052;1084;64106;-83
2021/07/07 03:05:26;;;;;;;9.70;7.70;;;;;;;27.02;50.90;100670.13;128359;1087;64105;-83
2021/07/07 03:07:59;;;;;;;13.90;8.10;;;;;;;27.02;51.03;100672.84;128407;1087;64252;-84
2021/07/07 03:10:26;;;;;;;9.40;7.97;;;;;;;27.02;50.79;100675.55;128382;1087;64240;-83
2021/07/07 03:13:15;;;;;;;;;;;;;;;;;;;;;
2021/07/07 03:15:51;;;;;;;11.73;7.90;;;;;;;27.03;51.04;100692.64;128015;1087;64293;-82
2021/07/07 03:18:44;;;;;;;9.08;7.33;;;;;;;27.03;50.72;100689.93;128410;1087;64597;-84
2021/07/07 03:21:17;;;;;;;9.10;7.33;;;;;;;27.03;50.90;100692.64;128037;1087;64240;-84
2021/07/07 03:23:52;;;;;;;9.70;7.40;;;;;;;27.03;50.82;100695.34;128363;1087;64301;-83
2021/07/07 03:26:37;;;;;;;11.63;7.63;;;;;;;27.03;50.95;100689.93;128371;1087;64179;-85
2021/07/07 03:29:24;;;;;;;9.57;7.33;;;;;;;27.03;50.80;100698.06;128390;1087;64323;-84
2021/07/07 03:32:02;;;;;;;10.33;7.63;;;;;;;27.02;50.84;100699.92;128358;1086;64921;-83
2021/07/07 03:34:41;;;;;;;8.90;7.37;;;;;;;27.04;50.84;100694.35;128375;1087;64208;-83
2021/07/07 03:37:28;;;;;;;;;;;;;;;;;;;;;
2021/07/07 03:40:03;;;;;;;9.87;7.67;;;;;;;27.03;50.83;100700.77;128370;1084;64641;-84
2021/07/07 03:42:41;;;;;;;10.80;7.93;;;;;;;27.04;50.76;100700.61;128412;1084;64310;-85
2021/07/07 03:45:21;;;;;;;11.03;8.10;;;;;;;27.03;50.90;100696.22;128407;1087;64320;-84
2021/07/07 03:48:02;;;;;;;11.87;7.90;;;;;;;27.03;50.48;100704.35;128418;1084;63981;-84
2021/07/07 03:50:37;;;;;;;11.20;7.73;;;;;;;27.03;50.70;100704.35;128044;1087;64107;-84
2021/07/07 03:53:27;;;;;;;9.67;7.67;;;;;;;27.04;50.66;100702.48;128348;1084;64082;-84
2021/07/07 03:56:06;;;;;;;8.60;7.63;;;;;;;27.03;50.59;100700.77;128385;1087;64211;-84
2021/07/07 03:58:42;;;;;;;10.33;7.70;;;;;;;27.02;50.67;100709.89;128387;1084;64096;-84
2021/07/07 04:01:08;;;;;;;10.67;7.40;;;;;;;27.02;50.57;100713.47;128386;1086;63974;-84
2021/07/07 04:03:51;;;;;;;8.83;7.23;;;;;;;27.03;50.46;100709.77;128426;1084;64166;-84
2021/07/07 04:06:19;;;;;;;11.50;7.37;;;;;;;27.02;50.47;100708.05;128383;1084;64134;-84
2021/07/07 04:09:10;;;;;;;10.10;7.93;;;;;;;27.02;50.53;100713.47;128322;1084;64105;-84
2021/07/07 04:11:46;;;;;;;10.00;7.93;;;;;;;27.04;50.64;100713.31;128376;1087;64195;-85
2021/07/07 04:14:34;;;;;;;12.30;7.40;;;;;;;27.04;50.53;100716.87;128365;1084;64103;-84
2021/07/07 04:17:02;;;;;;;10.93;7.90;;;;;;;27.04;50.51;100724.16;128378;1084;64105;-84
2021/07/07 04:19:34;;;;;;;11.93;7.53;;;;;;;27.04;50.40;100722.28;128326;1084;64138;-84
2021/07/07 04:22:01;;;;;;;8.70;7.10;;;;;;;27.04;50.47;100722.28;128414;1084;64139;-84
2021/07/07 04:24:45;;;;;;;12.80;7.40;;;;;;;27.04;50.25;100722.28;128386;1087;64683;-84
2021/07/07 04:27:14;;;;;;;9.53;7.67;;;;;;;27.05;50.20;100733.99;128396;1084;64684;-84
2021/07/07 04:30:10;;;;;;;10.25;7.30;;;;;;;27.05;50.36;100737.55;128390;1084;64119;-83
2021/07/07 04:32:36;;;;;;;9.80;7.57;;;;;;;27.05;50.25;100729.41;128408;1087;64141;-85
2021/07/07 04:35:13;;;;;;;8.40;7.30;;;;;;;27.06;50.30;100738.42;128353;1084;64131;-86
2021/07/07 04:37:49;;;;;;;9.65;7.70;;;;;;;27.07;50.30;100732.84;128421;1086;64345;-83
2021/07/07 04:40:23;;;;;;;9.47;7.33;;;;;;;27.07;50.35;100737.39;128344;1084;64288;-83
2021/07/07 04:42:56;;;;;;;9.63;7.37;;;;;;;27.07;49.99;100737.39;128357;1084;64379;-84
2021/07/07 04:45:50;;;;;;;8.37;7.27;;;;;;;27.09;50.08;100740.81;128363;1087;64140;-84
2021/07/07 04:48:30;;;;;;;10.37;7.77;;;;;;;27.08;50.25;100745.36;127900;1090;64145;-85
2021/07/07 04:51:00;;;;;;;9.23;7.00;;;;;;;27.09;49.99;100738.95;127923;1090;62173;-83
2021/07/07 04:53:26;;;;;;;8.33;7.10;;;;;;;27.10;49.85;100750.66;127927;1090;64134;-84
2021/07/07 04:56:07;;;;;;;;;;;;;;;;;;;;;
2021/07/07 04:58:55;;;;;;;10.70;7.03;;;;;;;27.12;49.87;100756.76;127867;1090;64176;-84
2021/07/07 05:01:22;;;;;;;11.07;6.83;;;;;;;27.13;49.78;100753.05;127863;1090;64217;-84
2021/07/07 05:04:09;;;;;;;12.63;6.73;;;;;;;27.15;49.58;100756.45;127917;1088;64157;-83
2021/07/07 05:06:55;;;;;;;8.80;6.27;;;;;;;27.16;49.71;100751.90;127867;1090;64475;-83
2021/07/07 05:09:25;;;;;;;11.43;6.93;;;;;;;27.17;49.74;100761.74;127872;1090;64339;-84
2021/07/07 05:12:15;;;;;;;8.23;6.40;;;;;;;27.17;49.75;100759.88;127901;1090;64275;-84
2021/07/07 05:14:44;;;;;;;11.47;6.50;;;;;;;27.19;49.64;100765.14;127876;1089;62943;-84
2021/07/07 05:18:08;;;;;;;;;;;;;;;;;;;;;
2021/07/07 05:21:20;;;;;;;7.73;5.93;;;;;;;27.21;49.41;100763.98;127898;1090;64239;-83
2021/07/07 05:24:10;;;;;;;9.63;6.27;;;;;;;27.21;49.52;100766.69;127853;1090;64383;-84
2021/07/07 05:26:43;;;;;;;8.50;6.23;;;;;;;27.23;49.32;100777.38;128210;1086;64259;-84
2021/07/07 05:29:18;;;;;;;9.13;6.43;;;;;;;27.23;49.35;100780.96;128340;1086;64118;-84
2021/07/07 05:32:05;;;;;;;9.87;6.57;;;;;;;27.25;49.34;100778.94;128373;1085;64314;-84
2021/07/07 05:34:31;;;;;;;9.30;6.60;;;;;;;27.26;49.30;100783.36;128266;1085;64220;-80
2021/07/07 05:37:03;;;;;;;10.10;6.30;;;;;;;27.28;49.17;100779.66;128321;1085;64006;-84
2021/07/07 05:39:35;;;;;;;11.13;7.13;;;;;;;27.30;49.32;100783.05;128358;1087;64131;-84
2021/07/07 05:42:13;;;;;;;10.03;6.83;;;;;;;27.30;48.93;100780.34;128381;1087;64150;-84
2021/07/07 05:44:52;;;;;;;11.45;6.93;;;;;;;27.31;48.98;100787.47;128321;1085;64208;-84
2021/07/07 05:47:21;;;;;;;;;;;;;;;27.30;49.01;100791.17;128327;1087;64141;-85
2021/07/07 05:49:48;;;;;;;10.13;6.70;;;;;;;27.31;49.21;100793.73;128315;1087;64211;-84
2021/07/07 05:52:25;;;;;;;10.40;6.10;;;;;;;27.33;48.81;100790.89;128284;1087;64137;-85
2021/07/07 05:54:52;;;;;;;8.63;6.37;;;;;;;27.33;48.97;100793.61;128267;1085;64287;-82
2021/07/07 05:57:26;;;;;;;9.13;6.43;;;;;;;27.34;48.89;100800.70;128240;1086;64270;-82
2021/07/07 06:00:14;;;;;;;9.53;6.37;;;;;;;27.34;48.81;100798.88;128300;1085;64104;-81
2021/07/07 06:02:42;;;;;;;12.90;7.47;;;;;;;27.36;49.10;100804.14;128330;1086;61753;-82
2021/07/07 06:05:19;;;;;;;9.48;6.23;;;;;;;27.37;48.87;100808.59;128242;1086;64099;-82
2021/07/07 06:07:46;;;;;;;9.13;6.40;;;;;;;27.37;49.14;100809.44;128299;1086;64138;-83
2021/07/07 06:10:15;;;;;;;12.87;8.30;;;;;;;27.38;48.98;100805.73;128345;1085;64710;-83
2021/07/07 06:12:42;;;;;;;12.97;7.97;;;;;;;27.39;49.03;100812.86;128335;1087;64637;-83
2021/07/07 06:15:09;;;;;;;12.03;8.23;;;;;;;27.40;48.73;100813.70;128348;1087;64204;-84
2021/07/07 06:17:36;;;;;;;10.25;6.20;;;;;;;27.39;48.88;100807.44;128331;1087;64191;-83
2021/07/07 06:20:04;;;;;;;8.80;6.10;;;;;;;27.40;48.96;100817.25;128206;1087;64411;-83
2021/07/07 06:22:30;;;;;;;10.40;6.93;;;;;;;27.41;49.04;100821.68;128208;1085;64304;-83
2021/07/07 06:24:57;;;;;;;10.33;6.87;;;;;;;27.41;48.31;100815.41;128201;1086;64099;-83
2021/07/07 06:27:23;;;;;;;14.03;8.07;;;;;;;27.42;48.85;100819.81;128251;1085;64122;-83
2021/07/07 06:29:50;;;;;;;10.33;7.07;;;;;;;27.42;48.62;100815.26;128211;1086;64243;-84
2021/07/07 06:32:18;;;;;;;9.43;6.90;;;;;;;27.42;48.62;100817.09;128255;1085;64093;-83
2021/07/07 06:34:45;;;;;;;10.63;7.33;;;;;;;27.43;48.61;100822.39;128297;1086;64143;-84
2021/07/07 06:37:15;;;;;;;8.80;6.50;;;;;;;27.44;48.94;100820.52;128285;1087;64138;-80
2021/07/07 06:39:41;;;;;;;9.63;6.37;;;;;;;27.44;48.80;100828.66;128211;1085;64138;-82
2021/07/07 06:42:12;;;;;;;9.30;6.65;;;;;;;27.45;48.67;100826.79;128303;1086;63932;-81
2021/07/07 06:44:39;;;;;;;9.13;6.70;;;;;;;27.46;48.71;100828.50;128304;1085;64255;-81
2021/07/07 06:47:06;;;;;;;8.17;6.63;;;;;;;27.46;48.65;100821.23;128335;1085;64141;-82
2021/07/07 06:49:34;;;;;;;7.67;6.37;;;;;;;27.45;48.72;100819.53;128276;1087;64134;-82
2021/07/07 06:52:03;;;;;;;8.80;6.77;;;;;;;27.47;48.98;100817.50;128271;1085;64439;-82
2021/07/07 06:54:30;;;;;;;9.33;6.87;;;;;;;27.48;48.81;100826.50;128326;1087;64255;-83
2021/07/07 06:57:02;;;;;;;10.80;5.97;;;;;;;27.48;48.68;100826.50;128352;1087;64125;-84
2021/07/07 06:59:32;;;;;;;11.95;6.20;;;;;;;27.48;48.75;100826.50;128292;1087;64253;-82
2021/07/07 07:02:00;;;;;;;9.60;7.00;;;;;;;27.49;49.08;100822.77;128256;1087;64099;-82
2021/07/07 07:04:27;;;;;;;9.10;6.60;;;;;;;27.49;48.99;100828.19;128273;1087;64152;-83
2021/07/07 07:06:53;;;;;;;7.47;6.20;;;;;;;27.49;48.73;100828.19;128285;1087;65360;-83
2021/07/07 07:09:20;;;;;;;9.63;6.10;;;;;;;27.48;48.67;100835.48;128223;1087;64110;-83
2021/07/07 07:11:55;;;;;;;8.67;6.00;;;;;;;27.49;48.83;100829.06;128009;1086;64208;-83
2021/07/07 07:14:21;;;;;;;8.17;6.20;;;;;;;27.48;48.55;100832.77;128277;1087;64285;-83
2021/07/07 07:16:59;;;;;;;8.30;6.50;;;;;;;27.50;48.73;100833.48;128335;1085;64300;-82
2021/07/07 07:19:26;;;;;;;10.67;5.73;;;;;;;27.50;48.95;100833.48;128272;1085;64141;-83
2021/07/07 07:21:52;;;;;;;9.73;6.17;;;;;;;27.49;48.77;100839.91;128286;1086;64143;-83
2021/07/07 07:24:21;;;;;;;8.00;6.33;;;;;;;27.50;48.80;100838.91;128341;1086;64160;-83
2021/07/07 07:26:47;;;;;;;9.57;5.70;;;;;;;27.50;48.77;100844.33;128335;1087;64253;-82
2021/07/07 07:29:14;;;;;;;7.93;5.73;;;;;;;27.49;48.84;100841.75;128327;1086;64154;-82
2021/07/07 07:31:40;;;;;;;7.90;6.23;;;;;;;27.50;48.51;100841.63;128265;1087;63489;-82
2021/07/07 07:34:06;;;;;;;6.30;5.60;;;;;;;27.51;48.71;100837.04;128289;1087;64138;-82
2021/07/07 07:36:34;;;;;;;10.50;6.33;;;;;;;27.51;48.83;100837.04;128274;1085;64105;-82
2021/07/07 07:39:08;;;;;;;7.10;5.80;;;;;;;27.51;48.78;100837.04;128294;1087;63032;-81
2021/07/07 07:41:38;;;;;;;7.40;5.90;;;;;;;27.51;48.52;100842.46;128315;1087;64306;-83
2021/07/07 07:44:08;;;;;;;9.17;5.77;;;;;;;27.52;48.56;100849.59;128194;1086;64137;-83
2021/07/07 07:46:34;;;;;;;7.67;5.80;;;;;;;27.51;48.77;100846.02;129486;1085;62132;-81
2021/07/07 07:49:01;;;;;;;8.77;5.57;;;;;;;27.52;48.61;100849.59;129453;1087;61981;-81
2021/07/07 07:51:29;;;;;;;9.80;5.80;;;;;;;27.54;48.81;100847.57;128949;1086;64154;-81
2021/07/07 07:53:56;;;;;;;9.28;6.20;;;;;;;27.53;48.73;100844.02;128296;1087;64221;-81
2021/07/07 07:56:22;;;;;;;7.97;5.97;;;;;;;27.55;48.56;100846.58;128250;1086;64562;-81
2021/07/07 07:58:48;;;;;;;8.03;5.60;;;;;;;27.56;48.47;100853.71;128260;1085;62194;-80
2021/07/07 08:01:15;;;;;;;7.00;5.70;;;;;;;27.57;48.39;100856.27;128279;1085;64105;-81
2021/07/07 08:03:48;;;;;;;8.80;5.70;;;;;;;27.57;48.35;100845.42;128264;1085;64134;-82
2021/07/07 08:06:31;;;;;;;8.73;5.67;;;;;;;27.57;48.45;100842.70;128301;1087;64205;-83
2021/07/07 08:09:08;;;;;;;8.47;5.67;;;;;;;27.57;48.69;100847.29;128272;1087;64157;-84
2021/07/07 08:11:34;;;;;;;8.37;5.50;;;;;;;27.56;48.61;100849.13;128303;1086;64213;-83
2021/07/07 08:14:01;;;;;;;10.30;5.43;;;;;;;27.58;48.14;100848.97;128237;1087;65051;-83
2021/07/07 08:16:38;;;;;;;7.37;5.27;;;;;;;27.58;48.14;100849.84;128309;1086;64102;-82
2021/07/07 08:19:07;;;;;;;10.63;6.00;;;;;;;27.58;48.49;100846.26;128474;1085;64140;-82
2021/07/07 08:21:33;;;;;;;6.37;5.30;;;;;;;27.58;48.42;100846.26;128241;1084;62725;-82
2021/07/07 08:24:02;;;;;;;8.17;5.67;;;;;;;27.58;48.27;100857.11;128262;1085;64218;-82
2021/07/07 08:26:30;;;;;;;9.67;6.10;;;;;;;27.58;48.03;100851.69;128307;1085;64138;-82
2021/07/07 08:28:58;;;;;;;7.73;5.57;;;;;;;27.57;48.10;100842.70;128259;1086;64176;-82
2021/07/07 08:31:25;;;;;;;7.17;5.87;;;;;;;27.58;48.43;100849.84;128270;1087;64099;-82
2021/07/07 08:33:55;;;;;;;7.53;5.37;;;;;;;27.59;48.05;100853.39;128282;1086;64268;-82
2021/07/07 08:36:26;;;;;;;10.03;5.83;;;;;;;27.59;48.05;100850.69;128294;1086;62210;-82
2021/07/07 08:38:53;;;;;;;7.20;5.70;;;;;;;27.58;48.17;100846.26;128244;1087;64134;-82
2021/07/07 08:41:22;;;;;;;9.53;5.97;;;;;;;27.57;47.87;100853.55;128268;1087;64138;-83
2021/07/07 08:43:49;;;;;;;6.78;5.25;;;;;;;27.55;47.89;100843.86;128290;1087;64134;-83
2021/07/07 08:46:18;;;;;;;6.90;5.50;;;;;;;27.55;47.98;100852.00;128264;1086;63940;-83
2021/07/07 08:48:44;;;;;;;7.40;5.57;;;;;;;27.54;48.31;100858.41;127974;1086;64485;-81
2021/07/07 08:51:17;;;;;;;7.47;5.10;;;;;;;27.53;48.15;100854.86;128256;1085;63007;-83
2021/07/07 08:53:45;;;;;;;7.80;5.10;;;;;;;27.54;47.83;100856.58;128198;1084;64179;-83
2021/07/07 08:56:13;;;;;;;7.33;5.38;;;;;;;27.55;48.10;100854.70;128234;1086;64138;-83
2021/07/07 08:58:39;;;;;;;6.20;4.70;;;;;;;27.54;48.17;100850.28;128242;1087;64192;-83
2021/07/07 09:01:06;;;;;;;7.07;5.67;;;;;;;27.54;48.22;100874.69;128229;1086;64161;-81
2021/07/07 09:03:33;;;;;;;7.23;5.23;;;;;;;27.53;48.17;100873.84;128250;1086;64127;-83
2021/07/07 09:06:05;;;;;;;8.93;5.23;;;;;;;27.53;48.14;100865.70;128312;1087;64100;-82
2021/07/07 09:08:36;;;;;;;6.60;5.03;;;;;;;27.55;48.31;100869.11;129047;1086;64134;-83
2021/07/07 09:11:22;;;;;;;9.47;5.37;;;;;;;27.54;48.05;100867.42;128194;1087;62804;-82
2021/07/07 09:14:08;;;;;;;7.80;5.07;;;;;;;27.55;47.98;100862.84;128249;1086;64133;-82
2021/07/07 09:17:02;;;;;;;6.43;5.07;;;;;;;27.54;48.04;100870.13;128246;1087;64297;-81
2021/07/07 09:19:36;;;;;;;6.33;5.37;;;;;;;27.54;48.27;100864.71;128333;1086;62192;-83
2021/07/07 09:22:06;;;;;;;7.13;5.17;;;;;;;27.54;48.10;100869.26;128348;1085;64125;-83
2021/07/07 09:24:36;;;;;;;5.90;5.20;;;;;;;27.53;48.11;100871.13;128288;1086;64127;-81
2021/07/07 09:27:06;;;;;;;7.70;5.40;;;;;;;27.54;48.15;100872.84;128276;1086;64096;-82
2021/07/07 09:29:40;;;;;;;6.50;5.30;;;;;;;27.54;48.13;100880.98;128632;1086;64176;-82
2021/07/07 09:32:27;;;;;;;6.47;5.30;;;;;;;27.55;48.06;100876.40;128199;1087;64235;-83
2021/07/07 09:34:59;;;;;;;6.83;5.23;;;;;;;27.55;47.80;100868.27;128186;1085;64144;-82
2021/07/07 09:37:37;;;;;;;8.17;5.20;;;;;;;27.55;47.84;100870.98;128258;1087;64673;-82
2021/07/07 09:40:09;;;;;;;6.70;5.33;;;;;;;27.55;47.92;100879.11;128489;1085;64211;-82
2021/07/07 09:42:37;;;;;;;6.03;4.93;;;;;;;27.55;47.96;100879.95;128212;1087;64381;-82
2021/07/07 09:45:06;;;;;;;7.58;5.60;;;;;;;27.55;47.84;100879.95;128240;1086;64314;-82
2021/07/07 09:47:35;;;;;;;6.33;5.05;;;;;;;27.56;48.00;100878.95;128219;1087;64240;-82
2021/07/07 09:50:01;;;;;;;5.97;4.97;;;;;;;27.55;47.82;100879.95;128285;1087;63942;-82
2021/07/07 09:52:30;;;;;;;6.83;5.70;;;;;;;27.55;47.92;100879.11;128287;1087;64192;-82
2021/07/07 09:54:57;;;;;;;8.27;5.40;;;;;;;27.54;48.04;100877.39;128297;1085;64208;-83
2021/07/07 09:57:30;;;;;;;6.07;5.00;;;;;;;27.55;48.00;100884.53;128344;1086;64215;-83
2021/07/07 09:59:56;;;;;;;7.45;5.35;;;;;;;27.54;48.13;100870.13;128289;1087;64134;-83
2021/07/07 10:02:23;;;;;;;12.40;6.27;;;;;;;27.54;47.80;100875.56;128298;1087;62445;-82
2021/07/07 10:04:49;;;;;;;11.27;9.23;;;;;;;27.54;47.70;100869.26;128319;1085;64230;-83
2021/07/07 10:07:16;;;;;;;10.43;7.93;;;;;;;27.52;47.61;100877.55;128293;1087;64144;-84
2021/07/07 10:09:46;;;;;;;8.40;6.97;;;;;;;27.54;47.61;100882.81;128238;1087;64265;-83
2021/07/07 10:12:26;;;;;;;8.33;6.53;;;;;;;27.53;47.68;100873.84;128220;1086;64170;-81
2021/07/07 10:14:52;;;;;;;8.17;6.37;;;;;;;27.53;47.90;100879.27;128235;1087;64191;-83
2021/07/07 10:17:19;;;;;;;8.67;6.73;;;;;;;27.52;47.71;100874.84;128261;1087;64160;-83
2021/07/07 10:19:45;;;;;;;7.87;5.90;;;;;;;27.53;47.69;100879.27;128188;1086;64278;-83
2021/07/07 10:22:15;;;;;;;8.50;6.07;;;;;;;27.53;47.79;100878.42;128255;1087;64208;-83
2021/07/07 10:24:42;;;;;;;7.57;6.40;;;;;;;27.54;47.79;100877.39;128265;1086;64176;-84
2021/07/07 10:27:11;;;;;;;7.80;6.37;;;;;;;27.53;47.74;100876.55;128321;1086;61705;-84
2021/07/07 10:29:55;;;;;;;7.77;6.20;;;;;;;27.53;47.89;100883.84;127929;1086;64179;-83
2021/07/07 10:32:24;;;;;;;7.87;6.50;;;;;;;27.52;47.87;100874.84;128209;1087;64136;-83
2021/07/07 10:35:12;;;;;;;8.23;7.33;;;;;;;27.53;47.84;100864.87;128241;1087;64186;-83
2021/07/07 10:37:43;;;;;;;9.50;7.77;;;;;;;27.52;47.74;100869.42;128293;1086;64342;-83
2021/07/07 10:40:27;;;;;;;9.53;7.80;;;;;;;27.52;47.96;100869.42;128320;1085;64074;-83
2021/07/07 10:42:54;;;;;;;8.77;7.37;;;;;;;27.52;47.87;100872.13;128245;1085;63969;-84
2021/07/07 10:45:49;;;;;;;8.47;6.73;;;;;;;27.51;48.02;100870.41;128311;1085;64300;-84
2021/07/07 10:48:26;;;;;;;9.83;8.23;;;;;;;27.51;47.96;100873.13;127829;1087;66185;-82
2021/07/07 10:51:00;;;;;;;10.37;9.27;;;;;;;27.51;47.80;100862.28;127842;1087;64131;-83
2021/07/07 10:53:45;;;;;;;13.97;8.93;;;;;;;27.52;47.96;100855.02;127845;1087;64667;-84
2021/07/07 10:56:12;;;;;;;7.97;7.00;;;;;;;27.51;47.93;100861.44;127819;1087;64214;-84
2021/07/07 10:58:39;;;;;;;8.63;7.73;;;;;;;27.51;48.02;100864.16;127846;1084;64124;-83
2021/07/07 11:01:46;;;;;;;;;;;;;;;;;;;;;
2021/07/07 11:04:20;;;;;;;9.03;7.70;;;;;;;27.48;47.67;100861.75;127826;1087;64114;-84
2021/07/07 11:06:55;;;;;;;10.27;7.43;;;;;;;27.49;47.96;100871.56;127923;1087;64398;-83
2021/07/07 11:09:26;;;;;;;8.90;7.50;;;;;;;27.49;47.73;100866.14;127955;1087;64219;-83
2021/07/07 11:12:14;;;;;;;9.27;7.90;;;;;;;27.49;47.68;100866.14;127881;1087;64387;-83
2021/07/07 11:14:57;;;;;;;;;;;;;;;27.47;47.92;100857.33;127703;1090;64472;-83
2021/07/07 11:17:54;;;;;;;9.70;8.20;;;;;;;27.47;47.97;100860.03;127703;1089;64314;-84
2021/07/07 11:20:44;;;;;;;;;;;;;;;;;;;;;
2021/07/07 11:23:19;;;;;;;9.73;7.60;;;;;;;27.45;47.99;100853.89;127713;1089;64147;-84
2021/07/07 11:25:55;;;;;;;10.20;7.80;;;;;;;27.44;47.69;100863.90;127775;1089;64287;-84
2021/07/07 11:28:21;;;;;;;10.33;8.20;;;;;;;27.45;47.88;100867.45;127900;1089;64138;-84
2021/07/07 11:30:57;;;;;;;10.50;8.37;;;;;;;27.44;47.72;100861.19;127869;1090;64385;-84
2021/07/07 11:33:24;;;;;;;9.77;8.77;;;;;;;27.45;47.79;100853.89;127764;1089;64160;-83
2021/07/07 11:35:51;;;;;;;8.83;7.93;;;;;;;27.45;47.79;100856.61;127824;1088;64323;-83
2021/07/07 11:38:28;;;;;;;10.30;7.93;;;;;;;27.43;47.72;100863.06;127883;1090;64319;-83
2021/07/07 11:41:04;;;;;;;10.67;7.93;;;;;;;27.43;47.83;100865.77;127814;1090;64274;-84
2021/07/07 11:43:33;;;;;;;10.07;8.07;;;;;;;27.43;47.43;100863.06;127844;1088;64109;-84
2021/07/07 11:46:13;;;;;;;10.73;8.00;;;;;;;27.43;47.48;100864.89;127796;1088;64600;-83
2021/07/07 11:48:46;;;;;;;8.90;7.80;;;;;;;27.42;47.63;100863.18;127786;1090;64121;-83
2021/07/07 11:51:18;;;;;;;9.70;8.50;;;;;;;27.43;47.34;100862.19;128668;1088;63108;-82
2021/07/07 11:53:46;;;;;;;8.87;7.97;;;;;;;27.43;47.52;100857.64;127886;1090;64233;-82
2021/07/07 11:56:16;;;;;;;9.70;7.87;;;;;;;27.45;47.49;100864.73;127768;1090;64112;-83
2021/07/07 11:58:47;;;;;;;8.87;7.93;;;;;;;27.45;47.26;100868.33;127771;1090;64106;-83
2021/07/07 12:01:27;;;;;;;9.43;8.00;;;;;;;27.46;47.43;100880.01;127800;1090;64235;-84
2021/07/07 12:04:15;;;;;;;9.83;8.10;;;;;;;27.45;47.18;100860.19;127806;1088;62541;-83